Time;durP1;ratioP1;P1;durP2;ratioP2;P2;SDS_P1;SDS_P2;PMS_P1;PMS_P2;Temp;Humidity;BMP_temperature;BMP_pressure;BME280_temperature;BME280_humidity;BME280_pressure;Samples;Min_cycle;Max_cycle;Signal;HPM_P1;HPM_P2
2022/10/06 00:01:12;;;;;;;4.30;0.93;;;15.20;99.90;;;;;;5090846;28;20513;-82
2022/10/06 00:03:38;;;;;;;7.30;0.85;;;15.20;99.90;;;;;;5091120;28;20036;-82
2022/10/06 00:06:05;;;;;;;2.63;0.70;;;15.30;99.90;;;;;;5089405;28;20036;-82
2022/10/06 00:08:32;;;;;;;3.42;0.85;;;15.30;99.90;;;;;;5089469;28;20024;-82
2022/10/06 00:10:58;;;;;;;3.85;0.90;;;15.30;99.90;;;;;;5089470;28;20028;-82
2022/10/06 00:13:25;;;;;;;7.55;2.17;;;15.30;99.90;;;;;;5089661;28;20023;-82
2022/10/06 00:15:51;;;;;;;3.67;1.05;;;15.30;99.90;;;;;;5089222;28;20032;-82
2022/10/06 00:18:17;;;;;;;2.88;0.80;;;15.30;99.90;;;;;;5089501;28;20028;-82
2022/10/06 00:20:43;;;;;;;6.28;1.58;;;15.30;99.90;;;;;;5090779;28;20035;-81
2022/10/06 00:23:09;;;;;;;4.25;1.17;;;15.40;99.90;;;;;;5091102;28;20036;-82
2022/10/06 00:25:35;;;;;;;5.10;1.17;;;15.40;99.90;;;;;;5090909;28;20032;-82
2022/10/06 00:28:01;;;;;;;4.70;0.85;;;15.40;99.90;;;;;;5090512;28;20028;-82
2022/10/06 00:30:28;;;;;;;4.90;1.15;;;15.30;99.90;;;;;;5090717;28;20077;-82
2022/10/06 00:32:56;;;;;;;6.80;1.00;;;15.30;99.90;;;;;;5090835;28;20028;-82
2022/10/06 00:35:28;;;;;;;3.08;0.95;;;15.30;99.90;;;;;;5072765;28;20103;-82
2022/10/06 00:37:54;;;;;;;5.35;1.23;;;15.30;99.90;;;;;;5055783;28;20032;-82
2022/10/06 00:40:21;;;;;;;4.20;0.77;;;15.30;99.90;;;;;;5090591;28;20043;-82
2022/10/06 00:43:27;;;;;;;3.10;0.73;;;15.20;99.90;;;;;;5072920;28;20093;-82
2022/10/06 00:45:53;;;;;;;4.55;1.00;;;15.20;99.90;;;;;;5090341;28;20031;-82
2022/10/06 00:48:23;;;;;;;7.15;0.80;;;15.20;99.90;;;;;;5090635;28;20025;-82
2022/10/06 00:50:52;;;;;;;4.82;0.93;;;15.20;99.90;;;;;;5090543;28;20032;-82
2022/10/06 00:53:20;;;;;;;4.10;0.63;;;15.20;99.90;;;;;;5090737;28;20503;-81
2022/10/06 00:55:45;;;;;;;6.07;0.77;;;15.10;99.90;;;;;;5090488;28;20039;-82
2022/10/06 00:58:12;;;;;;;3.90;0.88;;;15.20;99.90;;;;;;5090681;28;20021;-82
2022/10/06 01:00:40;;;;;;;3.10;0.80;;;15.10;99.90;;;;;;5090570;28;20104;-82
2022/10/06 01:03:11;;;;;;;8.63;1.30;;;15.10;99.90;;;;;;5072543;28;20028;-81
2022/10/06 01:05:45;;;;;;;6.63;1.40;;;15.10;99.90;;;;;;5072340;28;20039;-81
2022/10/06 01:08:13;;;;;;;5.60;1.08;;;15.10;99.90;;;;;;5072464;28;20040;-82
2022/10/06 01:10:41;;;;;;;;;;;15.10;99.90;;;;;;5072596;28;20024;-82
2022/10/06 01:13:09;;;;;;;3.30;1.30;;;15.10;99.90;;;;;;5072611;28;19908;-81
2022/10/06 01:15:43;;;;;;;5.88;1.33;;;15.10;99.90;;;;;;5072321;28;20054;-82
2022/10/06 01:18:16;;;;;;;8.68;1.15;;;15.10;99.90;;;;;;5090563;28;20028;-82
2022/10/06 01:20:48;;;;;;;4.05;0.95;;;15.00;99.90;;;;;;5090499;28;20031;-81
2022/10/06 01:23:15;;;;;;;5.45;1.00;;;15.00;99.90;;;;;;5090809;28;20028;-82
2022/10/06 01:25:41;;;;;;;5.63;1.30;;;15.00;99.90;;;;;;5090416;28;20034;-82
2022/10/06 01:28:10;;;;;;;4.90;0.90;;;15.10;99.90;;;;;;5072482;28;20035;-81
2022/10/06 01:30:56;;;;;;;6.03;1.23;;;15.10;99.90;;;;;;5072527;28;20416;-82
2022/10/06 01:33:23;;;;;;;5.20;1.27;;;15.00;99.90;;;;;;5056053;28;20033;-82
2022/10/06 01:35:51;;;;;;;9.15;1.38;;;15.00;99.90;;;;;;5072365;28;20032;-82
2022/10/06 01:38:18;;;;;;;6.93;1.08;;;15.00;99.90;;;;;;5072958;28;20028;-82
2022/10/06 01:40:47;;;;;;;6.45;1.33;;;15.00;99.90;;;;;;5075892;28;20027;-82
2022/10/06 01:43:13;;;;;;;7.57;1.60;;;15.00;99.90;;;;;;5095469;28;20309;-82
2022/10/06 01:45:40;;;;;;;6.82;1.25;;;15.00;99.90;;;;;;5075832;28;20034;-82
2022/10/06 01:48:07;;;;;;;6.30;1.23;;;14.90;99.90;;;;;;5075870;28;20024;-82
2022/10/06 01:50:33;;;;;;;4.78;1.33;;;14.90;99.90;;;;;;5075865;28;20387;-82
2022/10/06 01:52:59;;;;;;;4.97;1.30;;;14.90;99.90;;;;;;5075896;28;20027;-84
2022/10/06 01:55:25;;;;;;;5.03;1.02;;;14.90;99.90;;;;;;5093979;28;20032;-84
2022/10/06 01:57:52;;;;;;;5.47;1.48;;;14.90;99.90;;;;;;5075611;28;20036;-84
2022/10/06 02:00:18;;;;;;;6.85;1.20;;;14.90;99.90;;;;;;5075590;28;20035;-84
2022/10/06 02:02:45;;;;;;;5.50;1.20;;;14.90;99.90;;;;;;5076031;28;20518;-83
2022/10/06 02:05:11;;;;;;;7.15;1.48;;;14.90;99.90;;;;;;5075686;28;20032;-84
2022/10/06 02:07:40;;;;;;;6.57;1.30;;;14.90;99.90;;;;;;5075559;28;20523;-84
2022/10/06 02:10:07;;;;;;;10.23;1.80;;;14.90;99.90;;;;;;5075350;28;20125;-83
2022/10/06 02:12:33;;;;;;;6.53;1.20;;;14.90;99.90;;;;;;5075541;28;20050;-83
2022/10/06 02:15:00;;;;;;;8.55;1.88;;;14.90;99.90;;;;;;5075584;28;20028;-84
2022/10/06 02:17:25;;;;;;;8.13;1.20;;;14.90;99.90;;;;;;5075401;28;20059;-84
2022/10/06 02:19:51;;;;;;;6.40;1.20;;;14.90;99.90;;;;;;5075137;28;20036;-84
2022/10/06 02:22:17;;;;;;;8.52;1.38;;;14.90;99.90;;;;;;5093437;28;20031;-84
2022/10/06 02:24:43;;;;;;;8.43;1.55;;;14.90;99.90;;;;;;5075255;28;20032;-84
2022/10/06 02:27:08;;;;;;;10.52;2.78;;;14.90;99.90;;;;;;5075461;28;20089;-84
2022/10/06 02:29:35;;;;;;;7.07;1.83;;;14.80;99.90;;;;;;5075152;28;20024;-84
2022/10/06 02:32:04;;;;;;;6.28;1.40;;;14.80;99.90;;;;;;5075182;28;20020;-83
2022/10/06 02:34:29;;;;;;;14.07;4.60;;;14.80;99.90;;;;;;5093360;28;20047;-84
2022/10/06 02:36:56;;;;;;;7.97;2.17;;;14.80;99.90;;;;;;5074736;28;20032;-84
2022/10/06 02:39:21;;;;;;;9.35;2.15;;;14.70;99.90;;;;;;5093042;28;20039;-83
2022/10/06 02:41:47;;;;;;;7.63;1.80;;;14.80;99.90;;;;;;5075012;28;20057;-83
2022/10/06 02:44:13;;;;;;;7.53;1.40;;;14.80;99.90;;;;;;5058411;28;20032;-84
2022/10/06 02:46:41;;;;;;;9.88;1.85;;;14.70;99.90;;;;;;5058417;28;20115;-84
2022/10/06 02:49:07;;;;;;;7.32;1.48;;;14.70;99.90;;;;;;5092796;28;20126;-83
2022/10/06 02:51:34;;;;;;;8.70;1.70;;;14.70;99.90;;;;;;5057007;28;20035;-84
2022/10/06 02:54:00;;;;;;;10.77;1.58;;;14.70;99.90;;;;;;5074798;28;20028;-83
2022/10/06 02:56:26;;;;;;;8.07;1.38;;;14.70;99.90;;;;;;5074728;28;20064;-83
2022/10/06 02:58:52;;;;;;;5.80;1.40;;;14.70;99.90;;;;;;5074271;28;20031;-83
2022/10/06 03:01:26;;;;;;;7.88;1.35;;;14.70;99.90;;;;;;5074597;28;20035;-83
2022/10/06 03:03:55;;;;;;;6.93;1.35;;;14.60;99.90;;;;;;5074574;28;20084;-83
2022/10/06 03:06:25;;;;;;;8.10;1.25;;;14.60;99.90;;;;;;5092298;28;20042;-83
2022/10/06 03:09:26;;;;;;;8.20;1.30;;;14.60;99.90;;;;;;5073502;28;20036;-84
2022/10/06 03:11:52;;;;;;;8.52;1.60;;;14.60;99.90;;;;;;5057865;28;20027;-83
2022/10/06 03:14:39;;;;;;;8.85;1.55;;;14.60;99.90;;;;;;5079064;22;20044;-67
2022/10/06 03:17:08;;;;;;;10.90;2.10;;;14.50;99.90;;;;;;5054302;28;20027;-67
2022/10/06 03:19:37;;;;;;;7.38;1.10;;;14.50;99.90;;;;;;5053615;28;20025;-68
2022/10/06 03:22:04;;;;;;;5.75;1.35;;;14.50;99.90;;;;;;5048106;28;20473;-68
2022/10/06 03:24:41;;;;;;;9.80;1.60;;;14.50;99.90;;;;;;5057687;28;20047;-69
2022/10/06 03:27:07;;;;;;;10.90;1.65;;;14.50;99.90;;;;;;5052911;28;20036;-69
2022/10/06 03:29:33;;;;;;;5.57;1.60;;;14.50;99.90;;;;;;5052673;28;20338;-67
2022/10/06 03:32:00;;;;;;;10.70;1.63;;;14.50;99.90;;;;;;5052832;28;20106;-66
2022/10/06 03:34:27;;;;;;;7.55;1.20;;;14.50;99.90;;;;;;5052805;28;20028;-66
2022/10/06 03:36:55;;;;;;;9.55;1.65;;;14.50;99.90;;;;;;5069167;28;20031;-66
2022/10/06 03:39:23;;;;;;;14.60;1.80;;;14.40;99.90;;;;;;5052139;28;20567;-66
2022/10/06 03:41:49;;;;;;;7.65;1.30;;;14.40;99.90;;;;;;5052609;28;20090;-66
2022/10/06 03:44:15;;;;;;;8.07;1.73;;;14.40;99.90;;;;;;5052271;28;20492;-66
2022/10/06 03:46:42;;;;;;;9.35;1.60;;;14.40;99.90;;;;;;5069101;28;20048;-66
2022/10/06 03:49:09;;;;;;;11.15;1.70;;;14.40;99.90;;;;;;5052290;28;20029;-65
2022/10/06 03:51:40;;;;;;;9.13;1.50;;;14.40;99.90;;;;;;5068889;28;20326;-66
2022/10/06 03:54:11;;;;;;;10.25;1.73;;;14.40;99.90;;;;;;5052001;28;20082;-66
2022/10/06 03:56:41;;;;;;;9.52;1.50;;;14.40;99.90;;;;;;5068767;28;20511;-67
2022/10/06 03:59:10;;;;;;;;;;;14.30;99.90;;;;;;5070789;28;20028;-66
2022/10/06 04:01:44;;;;;;;8.65;1.58;;;14.30;99.90;;;;;;5052151;28;19908;-66
2022/10/06 04:04:13;;;;;;;7.32;1.25;;;14.30;99.90;;;;;;5068896;28;20550;-66
2022/10/06 04:06:43;;;;;;;7.47;1.20;;;14.30;99.90;;;;;;5052080;28;20480;-66
2022/10/06 04:09:13;;;;;;;7.65;1.23;;;14.30;99.90;;;;;;5035814;28;20295;-66
2022/10/06 04:11:40;;;;;;;7.93;1.60;;;14.30;99.90;;;;;;5051986;28;20063;-66
2022/10/06 04:14:09;;;;;;;11.35;2.90;;;14.30;99.90;;;;;;5069874;28;20024;-66
2022/10/06 04:16:37;;;;;;;;;;;14.30;99.90;;;;;;5068962;28;20077;-65
2022/10/06 04:19:08;;;;;;;14.60;3.90;;;14.30;99.90;;;;;;5051534;28;19920;-66
2022/10/06 04:21:36;;;;;;;10.80;2.42;;;14.20;99.90;;;;;;5051811;28;20047;-66
2022/10/06 04:24:05;;;;;;;9.65;1.67;;;14.20;99.90;;;;;;5068035;28;20091;-65
2022/10/06 04:26:34;;;;;;;7.38;1.90;;;14.20;99.90;;;;;;5069745;28;20093;-65
2022/10/06 04:29:00;;;;;;;;;;;14.20;99.90;;;;;;5068642;28;20101;-65
2022/10/06 04:31:29;;;;;;;8.35;1.70;;;14.20;99.90;;;;;;5068078;28;19908;-66
2022/10/06 04:33:58;;;;;;;9.05;1.73;;;14.10;99.90;;;;;;5068359;28;20027;-66
2022/10/06 04:36:30;;;;;;;8.15;1.60;;;14.10;99.90;;;;;;5069641;28;20493;-67
2022/10/06 04:38:58;;;;;;;10.07;1.55;;;14.10;99.90;;;;;;5067743;28;20489;-66
2022/10/06 04:41:30;;;;;;;11.65;2.35;;;14.10;99.90;;;;;;5069771;28;20119;-65
2022/10/06 04:43:56;;;;;;;14.38;2.60;;;14.10;99.90;;;;;;5069385;28;20052;-65
2022/10/06 04:46:23;;;;;;;10.60;3.03;;;14.10;99.90;;;;;;5069421;28;20120;-66
2022/10/06 04:48:53;;;;;;;12.77;2.80;;;14.10;99.90;;;;;;5034693;28;20438;-65
2022/10/06 04:51:23;;;;;;;10.80;2.30;;;14.10;99.90;;;;;;5051631;28;20028;-65
2022/10/06 04:53:50;;;;;;;10.07;1.67;;;14.00;99.90;;;;;;5069371;28;20021;-65
2022/10/06 04:56:23;;;;;;;9.88;2.35;;;14.10;99.90;;;;;;5051818;28;20040;-65
2022/10/06 04:58:52;;;;;;;14.05;2.25;;;14.00;99.90;;;;;;5051467;28;20385;-65
2022/10/06 05:01:22;;;;;;;13.68;2.00;;;14.00;99.90;;;;;;5068090;28;20036;-66
2022/10/06 05:03:50;;;;;;;8.02;1.48;;;14.00;99.90;;;;;;5034691;28;20066;-65
2022/10/06 05:06:17;;;;;;;11.77;1.80;;;14.00;99.90;;;;;;5067900;28;20028;-65
2022/10/06 05:08:50;;;;;;;14.20;4.88;;;14.00;99.90;;;;;;5050828;28;20086;-66
2022/10/06 05:11:17;;;;;;;14.68;5.32;;;14.00;99.90;;;;;;5068473;28;20484;-65
2022/10/06 05:13:44;;;;;;;17.48;4.78;;;13.90;99.90;;;;;;5069380;28;20086;-66
2022/10/06 05:16:14;;;;;;;12.00;1.98;;;13.90;99.90;;;;;;5054935;28;20128;-66
2022/10/06 05:18:53;;;;;;;13.38;3.40;;;13.90;99.90;;;;;;5056163;28;20173;-68
2022/10/06 05:21:22;;;;;;;9.77;2.45;;;13.90;99.90;;;;;;5072720;28;20035;-66
2022/10/06 05:23:48;;;;;;;;;;;13.90;99.90;;;;;;5071295;28;20040;-66
2022/10/06 05:26:20;;;;;;;15.25;2.17;;;13.80;99.90;;;;;;5071022;28;20288;-66
2022/10/06 05:28:46;;;;;;;11.88;2.40;;;13.90;99.90;;;;;;5071070;28;20031;-66
2022/10/06 05:31:14;;;;;;;12.40;1.90;;;13.80;99.90;;;;;;5071033;28;20400;-66
2022/10/06 05:33:40;;;;;;;11.07;2.25;;;13.80;99.90;;;;;;5055006;28;20024;-66
2022/10/06 05:36:14;;;;;;;12.20;1.77;;;13.80;99.90;;;;;;5054798;28;20037;-66
2022/10/06 05:38:42;;;;;;;14.52;2.42;;;13.80;99.90;;;;;;5071084;28;20032;-66
2022/10/06 05:41:14;;;;;;;11.35;2.15;;;13.80;99.90;;;;;;5054995;28;20028;-66
2022/10/06 05:43:41;;;;;;;11.48;2.50;;;13.80;99.90;;;;;;5055004;28;20028;-67
2022/10/06 05:46:16;;;;;;;12.48;2.45;;;13.80;99.90;;;;;;5072847;28;20075;-66
2022/10/06 05:48:48;;;;;;;11.00;2.45;;;13.80;99.90;;;;;;5069773;22;20038;-83
2022/10/06 05:51:17;;;;;;;16.13;2.25;;;13.80;99.90;;;;;;5028031;28;20514;-83
2022/10/06 05:53:43;;;;;;;11.73;2.75;;;13.80;99.90;;;;;;4997478;28;20125;-82
2022/10/06 05:56:11;;;;;;;17.70;2.60;;;13.70;99.90;;;;;;5013922;28;20052;-82
2022/10/06 05:58:40;;;;;;;14.70;2.88;;;13.80;99.90;;;;;;5013751;28;20032;-82
2022/10/06 06:01:15;;;;;;;13.93;1.90;;;13.70;99.90;;;;;;5013849;28;20437;-83
2022/10/06 06:03:45;;;;;;;13.15;2.33;;;13.70;99.90;;;;;;5013901;28;20033;-83
2022/10/06 06:06:44;;;;;;;13.10;3.30;;;13.70;99.90;;;;;;5013654;28;20076;-92
2022/10/06 06:09:19;;;;;;;20.13;7.53;;;13.60;99.90;;;;;;5037784;22;20041;-72
2022/10/06 06:11:49;;;;;;;15.80;5.50;;;13.90;99.90;;;;;;5053887;28;20029;-71
2022/10/06 06:15:59;;;;;;;20.85;4.95;;;14.00;99.90;;;;;;5051202;28;20034;-76
2022/10/06 06:17:11;;;;;;;15.23;3.05;;;14.10;99.90;;;;;;5053942;28;20028;-76
2022/10/06 06:19:37;;;;;;;23.02;5.20;;;14.10;99.90;;;;;;5053718;28;20430;-76
2022/10/06 06:22:05;;;;;;;22.67;3.20;;;14.00;99.90;;;;;;5053708;28;20082;-76
2022/10/06 06:24:33;;;;;;;16.83;3.72;;;14.10;99.90;;;;;;5037043;28;20024;-70
2022/10/06 06:26:59;;;;;;;14.63;3.45;;;14.10;99.90;;;;;;5037261;28;20038;-68
2022/10/06 06:29:25;;;;;;;15.55;3.05;;;14.10;99.90;;;;;;5053216;28;20097;-72
2022/10/06 06:31:52;;;;;;;12.70;2.20;;;14.00;99.90;;;;;;5053372;28;20436;-70
2022/10/06 06:34:18;;;;;;;14.75;3.10;;;13.90;99.90;;;;;;5053115;28;20032;-71
2022/10/06 06:36:46;;;;;;;15.85;2.85;;;13.90;99.90;;;;;;5071240;28;20082;-71
2022/10/06 06:39:16;;;;;;;13.27;3.03;;;13.90;99.90;;;;;;5052895;28;20024;-71
2022/10/06 06:41:45;;;;;;;14.27;2.78;;;13.90;99.90;;;;;;5053396;28;20315;-71
2022/10/06 06:44:41;;;;;;;15.48;2.75;;;13.90;99.90;;;;;;5053355;28;20036;-69
2022/10/06 06:47:38;;;;;;;15.25;3.17;;;13.90;99.90;;;;;;5053238;28;20067;-70
2022/10/06 06:50:09;;;;;;;15.63;3.83;;;13.80;99.90;;;;;;5053341;28;20048;-71
2022/10/06 06:52:36;;;;;;;13.40;2.63;;;13.90;99.90;;;;;;5058458;28;20029;-72
2022/10/06 06:55:03;;;;;;;17.27;3.20;;;13.80;99.90;;;;;;5052281;28;20059;-71
2022/10/06 06:57:28;;;;;;;18.38;2.70;;;13.90;99.90;;;;;;5052483;28;20037;-71
2022/10/06 07:00:01;;;;;;;14.60;2.87;;;13.90;99.90;;;;;;5052238;28;20519;-73
2022/10/06 07:02:28;;;;;;;11.55;2.75;;;13.90;99.90;;;;;;5024836;28;20039;-72
2022/10/06 07:04:55;;;;;;;11.23;2.95;;;13.90;99.90;;;;;;5049175;28;20087;-73
2022/10/06 07:07:22;;;;;;;15.52;2.90;;;13.90;99.90;;;;;;5049460;28;20072;-71
2022/10/06 07:09:49;;;;;;;15.20;2.97;;;13.90;99.90;;;;;;5049059;28;20400;-71
2022/10/06 07:12:17;;;;;;;15.77;2.33;;;13.90;99.90;;;;;;5033616;28;20378;-72
2022/10/06 07:26:13;;;;;;;16.85;3.05;;;14.10;99.90;;;;;;5049252;28;20351;-73
2022/10/06 07:28:41;;;;;;;16.15;2.95;;;14.10;99.90;;;;;;5048991;28;20021;-71
2022/10/06 07:31:07;;;;;;;13.48;2.70;;;14.10;99.90;;;;;;5049863;28;20116;-70
2022/10/06 07:33:33;;;;;;;14.68;2.58;;;14.10;99.90;;;;;;5049499;28;20112;-70
2022/10/06 07:36:02;;;;;;;16.42;2.97;;;14.10;99.90;;;;;;5048725;28;20579;-70
2022/10/06 07:38:29;;;;;;;12.30;2.60;;;14.10;99.90;;;;;;5048782;28;20083;-74
2022/10/06 07:40:57;;;;;;;15.98;3.42;;;14.20;99.90;;;;;;5049373;28;20103;-73
2022/10/06 07:43:25;;;;;;;15.77;2.60;;;14.20;99.90;;;;;;5041308;28;20029;-71
2022/10/06 07:45:52;;;;;;;15.25;2.58;;;14.20;99.90;;;;;;5031221;28;20443;-74
2022/10/06 07:48:26;;;;;;;20.23;3.47;;;14.20;99.90;;;;;;5032419;28;20524;-72
2022/10/06 07:50:56;;;;;;;14.63;3.60;;;14.20;99.90;;;;;;5032424;28;20099;-76
2022/10/06 07:53:27;;;;;;;17.73;3.45;;;14.20;99.90;;;;;;5032085;28;20132;-76
2022/10/06 07:56:05;;;;;;;14.80;2.25;;;14.30;99.90;;;;;;5039608;28;20100;-71
2022/10/06 07:58:39;;;;;;;17.95;2.80;;;14.30;99.90;;;;;;5048272;28;20028;-77
2022/10/06 08:01:07;;;;;;;15.90;2.90;;;14.30;99.90;;;;;;5049524;28;20029;-75
2022/10/06 08:03:33;;;;;;;12.00;2.63;;;14.20;99.90;;;;;;5049875;28;20055;-75
2022/10/06 08:06:02;;;;;;;20.23;3.20;;;14.20;99.90;;;;;;5048668;28;20391;-77
2022/10/06 08:08:36;;;;;;;15.05;3.15;;;14.20;99.90;;;;;;5014636;28;20110;-72
2022/10/06 08:11:04;;;;;;;12.57;3.00;;;14.20;99.90;;;;;;5048967;28;20036;-77
2022/10/06 08:13:31;;;;;;;11.68;2.50;;;14.20;99.90;;;;;;5049206;28;20454;-76
2022/10/06 08:16:10;;;;;;;21.95;3.55;;;14.30;99.90;;;;;;5048581;28;20130;-75
2022/10/06 08:18:40;;;;;;;15.93;2.67;;;14.30;99.90;;;;;;5015212;28;20116;-76
2022/10/06 08:21:12;;;;;;;14.00;2.70;;;14.30;99.90;;;;;;5031851;28;20033;-75
2022/10/06 08:23:41;;;;;;;17.40;3.67;;;14.30;99.90;;;;;;5054872;28;20024;-75
2022/10/06 08:26:09;;;;;;;17.20;3.03;;;14.40;99.90;;;;;;5046156;28;20036;-75
2022/10/06 08:28:36;;;;;;;12.95;2.42;;;14.30;99.90;;;;;;5049235;28;20025;-76
2022/10/06 08:31:04;;;;;;;14.02;2.35;;;14.30;99.90;;;;;;5049418;28;20041;-76
2022/10/06 08:33:37;;;;;;;14.48;3.50;;;14.40;99.90;;;;;;5049412;28;20055;-75
2022/10/06 08:36:13;;;;;;;11.27;2.42;;;14.30;99.90;;;;;;5044837;28;20421;-77
2022/10/06 08:38:40;;;;;;;14.32;2.40;;;14.40;99.90;;;;;;5048794;28;20108;-76
2022/10/06 08:41:19;;;;;;;16.90;2.30;;;14.40;99.90;;;;;;5030826;28;20029;-76
2022/10/06 08:44:00;;;;;;;12.68;2.63;;;14.50;99.90;;;;;;5031137;28;20036;-76
2022/10/06 08:46:36;;;;;;;13.02;2.47;;;14.50;99.90;;;;;;5034479;28;20036;-76
2022/10/06 08:49:04;;;;;;;16.85;3.35;;;14.50;99.90;;;;;;5050752;28;20033;-76
2022/10/06 08:52:05;;;;;;;17.75;3.30;;;14.50;99.90;;;;;;5052358;28;20037;-77
2022/10/06 08:54:55;;;;;;;14.27;2.75;;;14.50;99.90;;;;;;5054521;28;20032;-76
2022/10/06 08:57:58;;;;;;;14.45;2.97;;;14.50;99.90;;;;;;5054096;28;20095;-77
2022/10/06 09:00:24;;;;;;;20.67;3.08;;;14.60;99.90;;;;;;5054486;28;20029;-76
2022/10/06 09:02:54;;;;;;;12.98;2.22;;;14.60;99.90;;;;;;5053302;28;20087;-77
2022/10/06 09:05:28;;;;;;;15.60;2.70;;;14.60;99.90;;;;;;5053287;28;20025;-77
2022/10/06 09:08:03;;;;;;;16.33;4.13;;;14.60;99.90;;;;;;5034019;28;20436;-77
2022/10/06 09:10:52;;;;;;;15.77;3.00;;;14.70;99.90;;;;;;5053022;28;20400;-77
2022/10/06 09:13:31;;;;;;;17.20;3.30;;;14.70;99.90;;;;;;5052810;28;20057;-77
2022/10/06 09:16:06;;;;;;;16.00;2.85;;;14.70;99.90;;;;;;5052445;28;20033;-77
2022/10/06 09:19:04;;;;;;;12.38;2.60;;;14.70;99.90;;;;;;5053075;28;20041;-76
2022/10/06 09:21:37;;;;;;;12.43;2.27;;;14.70;99.90;;;;;;5054392;28;20047;-76
2022/10/06 09:24:48;;;;;;;11.80;2.08;;;14.80;99.90;;;;;;5053418;28;20358;-77
2022/10/06 09:27:19;;;;;;;12.95;2.88;;;14.80;99.90;;;;;;5049043;28;20044;-73
2022/10/06 09:29:47;;;;;;;20.23;4.18;;;14.80;99.90;;;;;;5051444;28;20029;-77
2022/10/06 09:32:14;;;;;;;13.07;2.50;;;14.80;99.90;;;;;;5052779;28;20059;-73
2022/10/06 09:34:54;;;;;;;16.77;3.08;;;14.80;99.90;;;;;;5052665;28;20025;-74
2022/10/06 09:37:20;;;;;;;14.75;2.30;;;14.90;99.90;;;;;;5033841;28;20370;-75
2022/10/06 09:39:49;;;;;;;19.75;3.63;;;14.90;99.90;;;;;;5052542;28;20100;-75
2022/10/06 09:42:35;;;;;;;17.05;2.88;;;15.00;99.90;;;;;;5053281;28;20377;-75
2022/10/06 09:45:23;;;;;;;12.07;2.83;;;15.00;99.90;;;;;;5053300;28;20060;-75
2022/10/06 09:47:49;;;;;;;10.07;2.28;;;15.10;99.90;;;;;;5052409;28;20430;-75
2022/10/06 09:50:20;;;;;;;15.73;4.30;;;15.10;99.90;;;;;;5052181;28;20052;-75
2022/10/06 09:53:07;;;;;;;11.13;2.10;;;15.10;99.90;;;;;;5051189;28;20033;-76
2022/10/06 09:55:35;;;;;;;12.32;2.55;;;15.10;99.90;;;;;;5052382;28;20393;-74
2022/10/06 09:58:11;;;;;;;13.27;2.88;;;15.10;99.90;;;;;;5032520;28;20225;-76
2022/10/06 10:00:46;;;;;;;12.93;2.85;;;15.20;99.90;;;;;;5031491;28;20033;-75
2022/10/06 10:03:12;;;;;;;11.23;2.13;;;15.20;99.90;;;;;;5014447;28;20029;-76
2022/10/06 10:05:46;;;;;;;14.45;2.45;;;15.20;99.90;;;;;;5032796;28;20535;-76
2022/10/06 10:08:24;;;;;;;16.55;3.63;;;15.20;99.90;;;;;;5014001;28;20056;-74
2022/10/06 10:12:23;;;;;;;20.55;4.40;;;15.30;99.90;;;;;;5031730;28;20426;-70
2022/10/06 10:13:58;;;;;;;16.42;3.15;;;15.30;99.90;;;;;;5032020;28;20044;-73
2022/10/06 10:16:33;;;;;;;11.35;2.20;;;15.30;99.90;;;;;;5020319;28;20025;-71
2022/10/06 10:19:00;;;;;;;16.00;2.55;;;15.30;99.90;;;;;;5050343;28;20120;-72
2022/10/06 10:21:29;;;;;;;10.52;2.58;;;15.30;99.90;;;;;;5052423;28;20041;-73
2022/10/06 10:24:01;;;;;;;9.50;2.25;;;15.40;99.90;;;;;;5058945;28;20031;-73
2022/10/06 10:26:37;;;;;;;10.43;1.80;;;15.40;99.90;;;;;;5071227;28;20036;-73
2022/10/06 10:29:31;;;;;;;10.10;2.08;;;15.60;99.80;;;;;;5059625;28;20045;-71
2022/10/06 10:32:33;;;;;;;10.85;2.35;;;15.60;98.80;;;;;;5050083;28;20426;-73
2022/10/06 10:35:26;;;;;;;9.40;2.35;;;15.60;98.70;;;;;;5031581;28;20097;-75
2022/10/06 10:37:55;;;;;;;13.00;2.05;;;16.00;99.90;;;;;;5049043;28;20033;-75
2022/10/06 10:40:21;;;;;;;11.93;1.83;;;16.40;99.90;;;;;;5031865;28;20029;-75
2022/10/06 10:42:55;;;;;;;11.00;2.13;;;16.40;98.70;;;;;;5031696;28;20033;-74
2022/10/06 10:45:27;;;;;;;11.60;2.30;;;16.40;99.90;;;;;;5049982;28;20043;-75
2022/10/06 10:47:56;;;;;;;11.32;1.63;;;16.50;99.00;;;;;;5050184;28;20218;-75
2022/10/06 10:50:42;;;;;;;10.18;1.50;;;16.50;98.10;;;;;;5033748;28;20120;-76
2022/10/06 10:53:21;;;;;;;12.45;2.20;;;16.70;97.90;;;;;;5051176;28;20112;-75
2022/10/06 10:55:49;;;;;;;9.77;1.70;;;16.80;97.00;;;;;;5033397;28;20040;-75
2022/10/06 10:58:35;;;;;;;12.00;2.38;;;17.00;97.30;;;;;;5051606;28;20051;-75
2022/10/06 11:01:10;;;;;;;8.23;1.70;;;17.00;95.40;;;;;;5050936;28;20033;-75
2022/10/06 11:03:36;;;;;;;6.85;1.38;;;17.00;96.00;;;;;;5070052;28;20449;-73
2022/10/06 11:06:02;;;;;;;6.43;1.60;;;16.90;94.10;;;;;;5071432;28;20119;-73
2022/10/06 11:08:41;;;;;;;10.68;1.65;;;16.70;94.40;;;;;;5070728;28;20100;-74
2022/10/06 11:11:21;;;;;;;9.43;1.85;;;16.60;94.30;;;;;;5070204;28;20509;-73
2022/10/06 11:13:51;;;;;;;9.27;1.63;;;16.50;94.40;;;;;;5047345;28;20037;-74
2022/10/06 11:16:38;;;;;;;12.45;1.98;;;16.30;94.00;;;;;;5034706;28;20114;-74
2022/10/06 11:19:29;;;;;;;10.50;1.73;;;16.30;93.70;;;;;;5034337;28;20036;-74
2022/10/06 11:22:21;;;;;;;8.98;1.50;;;16.30;93.90;;;;;;5051627;28;20040;-74
2022/10/06 11:25:04;;;;;;;8.52;1.52;;;16.20;93.80;;;;;;5041585;28;20043;-74
2022/10/06 11:27:54;;;;;;;4.80;1.38;;;16.20;93.10;;;;;;5050804;28;20044;-74
2022/10/06 11:30:25;;;;;;;8.20;2.00;;;16.20;92.80;;;;;;5032960;28;20021;-74
2022/10/06 11:33:24;;;;;;;12.15;1.90;;;16.20;92.90;;;;;;5033376;28;20029;-74
2022/10/06 11:35:50;;;;;;;;;;;16.20;93.10;;;;;;5052606;28;20469;-74
2022/10/06 11:38:19;;;;;;;6.05;1.40;;;16.20;91.90;;;;;;5051852;28;19958;-74
2022/10/06 11:41:10;;;;;;;12.77;2.03;;;16.20;91.90;;;;;;5033762;28;20056;-74
2022/10/06 11:43:54;;;;;;;8.65;1.42;;;16.20;92.20;;;;;;5052346;28;20501;-74
2022/10/06 11:47:03;;;;;;;5.13;1.58;;;16.20;92.00;;;;;;5051712;28;20094;-74
2022/10/06 11:52:09;;;;;;;14.88;2.53;;;16.20;92.00;;;;;;5066991;28;20129;-73
2022/10/06 11:54:51;;;;;;;8.55;1.23;;;16.20;92.10;;;;;;5069897;28;20067;-73
2022/10/06 11:57:23;;;;;;;6.78;1.40;;;16.20;91.90;;;;;;5070096;28;20035;-73
2022/10/06 12:00:03;;;;;;;6.53;1.50;;;16.30;92.10;;;;;;5069775;28;20029;-73
2022/10/06 12:02:36;;;;;;;7.57;1.25;;;16.30;91.90;;;;;;5052665;28;20456;-72
2022/10/06 12:05:14;;;;;;;9.05;2.53;;;16.30;92.10;;;;;;5070065;28;20036;-68
2022/10/06 12:07:54;;;;;;;10.68;1.58;;;16.30;92.50;;;;;;5069575;28;20024;-68
2022/10/06 12:10:26;;;;;;;8.18;2.10;;;16.40;91.30;;;;;;5052136;28;20043;-69
2022/10/06 12:13:14;;;;;;;9.68;1.60;;;16.40;92.00;;;;;;5069450;28;20044;-70
2022/10/06 12:15:59;;;;;;;9.07;2.13;;;16.40;92.10;;;;;;5052057;28;20416;-71
2022/10/06 12:19:01;;;;;;;8.20;1.50;;;16.30;92.60;;;;;;5070265;28;20044;-70
2022/10/06 12:21:42;;;;;;;5.70;1.40;;;16.40;92.30;;;;;;5069972;28;20113;-70
2022/10/06 12:24:26;;;;;;;7.22;1.70;;;16.40;92.50;;;;;;5069502;28;20036;-70
2022/10/06 12:27:00;;;;;;;9.57;2.08;;;16.40;92.60;;;;;;5069642;28;20495;-70
2022/10/06 12:29:41;;;;;;;7.18;1.60;;;16.40;92.00;;;;;;5069572;28;20024;-70
2022/10/06 12:32:19;;;;;;;7.55;1.30;;;16.40;90.80;;;;;;5069720;28;20025;-70
2022/10/06 12:35:02;;;;;;;7.07;1.40;;;16.40;91.00;;;;;;5069564;28;20039;-70
2022/10/06 12:37:27;;;;;;;6.85;1.75;;;16.40;91.40;;;;;;5069343;28;20039;-70
2022/10/06 12:40:45;;;;;;;9.70;2.10;;;16.50;91.90;;;;;;5068970;28;20443;-70
2022/10/06 12:43:12;;;;;;;6.83;1.37;;;16.50;92.00;;;;;;5048961;28;20053;-69
2022/10/06 12:45:59;;;;;;;8.30;1.40;;;16.50;91.60;;;;;;5069502;28;20438;-69
2022/10/06 12:48:34;;;;;;;6.30;1.27;;;16.50;91.50;;;;;;5069275;28;20515;-69
2022/10/06 12:51:07;;;;;;;7.15;1.80;;;16.50;91.10;;;;;;5069315;28;20508;-69
2022/10/06 12:53:46;;;;;;;5.57;1.55;;;16.50;91.10;;;;;;5069494;28;20100;-69
2022/10/06 12:56:38;;;;;;;;;;;16.50;91.10;;;;;;5051878;28;20111;-69
2022/10/06 12:59:24;;;;;;;7.32;1.35;;;16.50;91.00;;;;;;5065018;28;19919;-69
2022/10/06 13:01:53;;;;;;;6.50;1.20;;;16.50;89.50;;;;;;5069309;28;20477;-71
2022/10/06 13:04:29;;;;;;;;;;;16.60;90.00;;;;;;5068577;28;20123;-70
2022/10/06 13:06:56;;;;;;;7.13;1.38;;;16.60;89.70;;;;;;5069609;28;19934;-69
2022/10/06 13:09:21;;;;;;;10.75;3.22;;;16.60;91.50;;;;;;5068273;28;20370;-70
2022/10/06 13:11:48;;;;;;;9.93;2.10;;;16.70;90.00;;;;;;5069022;28;20158;-69
2022/10/06 13:14:14;;;;;;;5.70;1.23;;;16.70;90.00;;;;;;5068746;28;20041;-69
2022/10/06 13:16:44;;;;;;;6.20;1.05;;;16.70;90.00;;;;;;5068462;28;20489;-70
2022/10/06 13:19:27;;;;;;;7.43;1.70;;;16.70;89.70;;;;;;5068106;28;20456;-69
2022/10/06 13:21:53;;;;;;;8.43;1.90;;;16.70;87.90;;;;;;5067207;28;20579;-69
2022/10/06 13:24:25;;;;;;;6.53;1.77;;;16.70;87.90;;;;;;5068314;28;20036;-70